sensor_id;sensor_type;location;lat;lon;timestamp;temperature;humidity
30702;DHT22;17451;49.908;7.980;2022-10-16T00:05:06;16.70;99.90
30702;DHT22;17451;49.908;7.980;2022-10-16T00:08:00;16.90;99.90
30702;DHT22;17451;49.908;7.980;2022-10-16T00:18:55;16.90;99.90
30702;DHT22;17451;49.908;7.980;2022-10-16T00:24:38;17.00;99.90
30702;DHT22;17451;49.908;7.980;2022-10-16T00:27:35;17.00;99.90
30702;DHT22;17451;49.908;7.980;2022-10-16T00:35:57;17.10;99.90
30702;DHT22;17451;49.908;7.980;2022-10-16T00:41:20;17.10;99.90
30702;DHT22;17451;49.908;7.980;2022-10-16T00:53:01;17.00;99.90
30702;DHT22;17451;49.908;7.980;2022-10-16T01:26:48;16.90;99.90
30702;DHT22;17451;49.908;7.980;2022-10-16T01:44:29;16.50;99.90
30702;DHT22;17451;49.908;7.980;2022-10-16T01:49:55;16.50;99.90
30702;DHT22;17451;49.908;7.980;2022-10-16T01:52:40;16.50;99.90
30702;DHT22;17451;49.908;7.980;2022-10-16T01:55:17;16.50;99.90
30702;DHT22;17451;49.908;7.980;2022-10-16T02:09:51;16.80;99.90
30702;DHT22;17451;49.908;7.980;2022-10-16T03:23:59;17.00;99.90
30702;DHT22;17451;49.908;7.980;2022-10-16T03:26:27;17.00;99.90
30702;DHT22;17451;49.908;7.980;2022-10-16T03:28:53;16.90;99.90
30702;DHT22;17451;49.908;7.980;2022-10-16T03:31:21;16.90;99.90
30702;DHT22;17451;49.908;7.980;2022-10-16T03:33:49;16.90;99.90
30702;DHT22;17451;49.908;7.980;2022-10-16T03:36:15;17.00;99.90
30702;DHT22;17451;49.908;7.980;2022-10-16T03:38:40;17.00;99.90
30702;DHT22;17451;49.908;7.980;2022-10-16T03:41:06;16.90;99.90
30702;DHT22;17451;49.908;7.980;2022-10-16T03:43:33;17.00;99.90
30702;DHT22;17451;49.908;7.980;2022-10-16T03:45:58;17.00;99.90
30702;DHT22;17451;49.908;7.980;2022-10-16T03:48:24;17.00;99.90
30702;DHT22;17451;49.908;7.980;2022-10-16T03:50:50;16.90;99.90
30702;DHT22;17451;49.908;7.980;2022-10-16T03:53:17;16.90;99.90
30702;DHT22;17451;49.908;7.980;2022-10-16T03:55:42;16.90;99.90
30702;DHT22;17451;49.908;7.980;2022-10-16T03:58:08;17.00;99.90
30702;DHT22;17451;49.908;7.980;2022-10-16T04:00:34;17.00;99.90
30702;DHT22;17451;49.908;7.980;2022-10-16T04:03:00;16.90;99.90
30702;DHT22;17451;49.908;7.980;2022-10-16T04:05:26;16.70;99.90
30702;DHT22;17451;49.908;7.980;2022-10-16T04:07:51;16.60;99.90
30702;DHT22;17451;49.908;7.980;2022-10-16T04:10:17;16.70;99.90
30702;DHT22;17451;49.908;7.980;2022-10-16T04:12:43;16.80;99.90
30702;DHT22;17451;49.908;7.980;2022-10-16T04:15:09;16.70;99.90
30702;DHT22;17451;49.908;7.980;2022-10-16T04:17:35;16.80;99.90
30702;DHT22;17451;49.908;7.980;2022-10-16T04:20:00;16.90;99.90
30702;DHT22;17451;49.908;7.980;2022-10-16T04:22:26;16.90;99.90
30702;DHT22;17451;49.908;7.980;2022-10-16T04:24:52;16.90;99.90
30702;DHT22;17451;49.908;7.980;2022-10-16T04:27:17;16.90;99.90
30702;DHT22;17451;49.908;7.980;2022-10-16T04:29:48;16.90;99.90
30702;DHT22;17451;49.908;7.980;2022-10-16T04:32:14;16.80;99.90
30702;DHT22;17451;49.908;7.980;2022-10-16T04:34:40;16.80;99.90
30702;DHT22;17451;49.908;7.980;2022-10-16T04:37:05;16.80;99.90
30702;DHT22;17451;49.908;7.980;2022-10-16T04:39:31;16.80;99.90
30702;DHT22;17451;49.908;7.980;2022-10-16T04:41:57;16.80;99.90
30702;DHT22;17451;49.908;7.980;2022-10-16T04:44:22;16.80;99.90
30702;DHT22;17451;49.908;7.980;2022-10-16T04:46:50;16.90;99.90
30702;DHT22;17451;49.908;7.980;2022-10-16T04:49:16;16.90;99.90
30702;DHT22;17451;49.908;7.980;2022-10-16T04:51:42;16.90;99.90
30702;DHT22;17451;49.908;7.980;2022-10-16T04:54:08;17.00;99.90
30702;DHT22;17451;49.908;7.980;2022-10-16T04:56:34;17.00;99.90
30702;DHT22;17451;49.908;7.980;2022-10-16T04:59:05;17.00;99.90
30702;DHT22;17451;49.908;7.980;2022-10-16T05:01:31;16.90;99.90
30702;DHT22;17451;49.908;7.980;2022-10-16T05:03:56;16.90;99.90
30702;DHT22;17451;49.908;7.980;2022-10-16T05:06:22;17.00;99.90
30702;DHT22;17451;49.908;7.980;2022-10-16T05:08:48;17.00;99.90
30702;DHT22;17451;49.908;7.980;2022-10-16T05:11:13;16.90;99.90
30702;DHT22;17451;49.908;7.980;2022-10-16T05:13:39;16.80;99.90
30702;DHT22;17451;49.908;7.980;2022-10-16T05:16:05;16.80;99.90
30702;DHT22;17451;49.908;7.980;2022-10-16T05:18:30;16.80;99.90
30702;DHT22;17451;49.908;7.980;2022-10-16T05:20:56;16.80;99.90
30702;DHT22;17451;49.908;7.980;2022-10-16T05:23:22;16.80;99.90
30702;DHT22;17451;49.908;7.980;2022-10-16T05:25:55;16.80;99.90
30702;DHT22;17451;49.908;7.980;2022-10-16T05:28:27;16.80;99.90
30702;DHT22;17451;49.908;7.980;2022-10-16T05:30:53;16.80;99.90
30702;DHT22;17451;49.908;7.980;2022-10-16T05:33:22;16.80;99.90
30702;DHT22;17451;49.908;7.980;2022-10-16T05:35:48;16.80;99.90
30702;DHT22;17451;49.908;7.980;2022-10-16T05:38:15;16.90;99.90
30702;DHT22;17451;49.908;7.980;2022-10-16T05:40:43;16.90;99.90
30702;DHT22;17451;49.908;7.980;2022-10-16T05:43:15;16.90;99.90
30702;DHT22;17451;49.908;7.980;2022-10-16T05:45:41;17.00;99.90
30702;DHT22;17451;49.908;7.980;2022-10-16T05:48:06;16.90;99.90
30702;DHT22;17451;49.908;7.980;2022-10-16T05:50:32;16.90;99.90
30702;DHT22;17451;49.908;7.980;2022-10-16T05:52:58;16.90;99.90
30702;DHT22;17451;49.908;7.980;2022-10-16T05:55:23;17.00;99.90
30702;DHT22;17451;49.908;7.980;2022-10-16T05:57:49;17.00;99.90
30702;DHT22;17451;49.908;7.980;2022-10-16T06:00:15;16.90;99.90
30702;DHT22;17451;49.908;7.980;2022-10-16T06:02:40;17.00;99.90
30702;DHT22;17451;49.908;7.980;2022-10-16T06:05:06;17.00;99.90
30702;DHT22;17451;49.908;7.980;2022-10-16T06:07:34;17.00;99.90
30702;DHT22;17451;49.908;7.980;2022-10-16T06:09:59;17.00;99.90
30702;DHT22;17451;49.908;7.980;2022-10-16T06:12:26;16.90;99.90
30702;DHT22;17451;49.908;7.980;2022-10-16T06:14:51;16.90;99.90
30702;DHT22;17451;49.908;7.980;2022-10-16T06:17:17;16.90;99.90
30702;DHT22;17451;49.908;7.980;2022-10-16T06:19:43;16.80;99.90
30702;DHT22;17451;49.908;7.980;2022-10-16T06:22:09;16.80;99.90
30702;DHT22;17451;49.908;7.980;2022-10-16T06:24:34;16.80;99.90
30702;DHT22;17451;49.908;7.980;2022-10-16T06:27:00;16.80;99.90
30702;DHT22;17451;49.908;7.980;2022-10-16T06:29:25;16.80;99.90
30702;DHT22;17451;49.908;7.980;2022-10-16T06:31:51;16.80;99.90
30702;DHT22;17451;49.908;7.980;2022-10-16T06:34:18;16.90;99.90
30702;DHT22;17451;49.908;7.980;2022-10-16T06:36:44;16.90;99.90
30702;DHT22;17451;49.908;7.980;2022-10-16T06:39:09;16.90;99.90
30702;DHT22;17451;49.908;7.980;2022-10-16T06:41:35;16.90;99.90
30702;DHT22;17451;49.908;7.980;2022-10-16T06:44:01;17.00;99.90
30702;DHT22;17451;49.908;7.980;2022-10-16T06:46:30;16.90;99.90
30702;DHT22;17451;49.908;7.980;2022-10-16T06:48:55;17.00;99.90
30702;DHT22;17451;49.908;7.980;2022-10-16T06:51:22;17.00;99.90
30702;DHT22;17451;49.908;7.980;2022-10-16T06:53:49;17.00;99.90
30702;DHT22;17451;49.908;7.980;2022-10-16T06:56:16;17.00;99.90
30702;DHT22;17451;49.908;7.980;2022-10-16T06:58:42;17.00;99.90
30702;DHT22;17451;49.908;7.980;2022-10-16T07:01:08;17.00;99.90
30702;DHT22;17451;49.908;7.980;2022-10-16T07:03:38;16.90;99.90
30702;DHT22;17451;49.908;7.980;2022-10-16T07:06:04;16.70;99.90
30702;DHT22;17451;49.908;7.980;2022-10-16T07:08:31;16.70;99.90
30702;DHT22;17451;49.908;7.980;2022-10-16T07:10:58;16.80;99.90
30702;DHT22;17451;49.908;7.980;2022-10-16T07:13:24;16.90;99.90
30702;DHT22;17451;49.908;7.980;2022-10-16T07:15:50;17.00;99.90
30702;DHT22;17451;49.908;7.980;2022-10-16T07:18:16;17.00;99.90
30702;DHT22;17451;49.908;7.980;2022-10-16T07:20:41;17.00;99.90
30702;DHT22;17451;49.908;7.980;2022-10-16T07:23:07;17.00;99.90
30702;DHT22;17451;49.908;7.980;2022-10-16T07:25:33;17.00;99.90
30702;DHT22;17451;49.908;7.980;2022-10-16T07:27:58;17.10;99.90
30702;DHT22;17451;49.908;7.980;2022-10-16T07:30:24;17.20;99.90
30702;DHT22;17451;49.908;7.980;2022-10-16T07:32:49;17.30;99.90
30702;DHT22;17451;49.908;7.980;2022-10-16T07:35:15;17.40;99.90
30702;DHT22;17451;49.908;7.980;2022-10-16T07:37:43;17.50;99.90
30702;DHT22;17451;49.908;7.980;2022-10-16T07:40:09;17.50;99.90
30702;DHT22;17451;49.908;7.980;2022-10-16T07:42:35;17.60;99.90
30702;DHT22;17451;49.908;7.980;2022-10-16T07:45:01;17.60;99.90
30702;DHT22;17451;49.908;7.980;2022-10-16T07:47:26;17.50;99.90
30702;DHT22;17451;49.908;7.980;2022-10-16T07:49:52;17.60;99.90
30702;DHT22;17451;49.908;7.980;2022-10-16T07:52:18;17.60;99.90
30702;DHT22;17451;49.908;7.980;2022-10-16T07:54:43;17.60;99.90
30702;DHT22;17451;49.908;7.980;2022-10-16T07:57:09;17.60;99.90
30702;DHT22;17451;49.908;7.980;2022-10-16T07:59:35;17.70;99.90
30702;DHT22;17451;49.908;7.980;2022-10-16T08:02:00;17.70;99.90
30702;DHT22;17451;49.908;7.980;2022-10-16T08:04:26;17.70;99.90
30702;DHT22;17451;49.908;7.980;2022-10-16T08:06:51;17.70;99.90
30702;DHT22;17451;49.908;7.980;2022-10-16T08:09:17;17.70;99.90
30702;DHT22;17451;49.908;7.980;2022-10-16T08:11:43;17.70;99.90
30702;DHT22;17451;49.908;7.980;2022-10-16T08:14:08;17.80;99.90
30702;DHT22;17451;49.908;7.980;2022-10-16T08:16:34;17.80;99.90
30702;DHT22;17451;49.908;7.980;2022-10-16T08:19:00;17.90;99.90
30702;DHT22;17451;49.908;7.980;2022-10-16T08:21:25;18.00;99.90
30702;DHT22;17451;49.908;7.980;2022-10-16T08:23:52;18.00;99.90
30702;DHT22;17451;49.908;7.980;2022-10-16T08:26:18;18.10;99.90
30702;DHT22;17451;49.908;7.980;2022-10-16T08:28:44;18.20;99.90
30702;DHT22;17451;49.908;7.980;2022-10-16T08:31:11;18.20;99.90
30702;DHT22;17451;49.908;7.980;2022-10-16T08:33:37;18.20;99.90
30702;DHT22;17451;49.908;7.980;2022-10-16T08:36:04;18.20;99.90
30702;DHT22;17451;49.908;7.980;2022-10-16T08:38:31;18.20;99.90
30702;DHT22;17451;49.908;7.980;2022-10-16T08:41:02;18.30;99.90
30702;DHT22;17451;49.908;7.980;2022-10-16T08:49:01;18.10;99.90
30702;DHT22;17451;49.908;7.980;2022-10-16T08:51:29;18.00;99.90
30702;DHT22;17451;49.908;7.980;2022-10-16T08:53:56;17.90;99.90
30702;DHT22;17451;49.908;7.980;2022-10-16T08:56:23;18.00;99.90
30702;DHT22;17451;49.908;7.980;2022-10-16T08:58:49;17.90;99.90
30702;DHT22;17451;49.908;7.980;2022-10-16T09:01:19;17.90;99.90
30702;DHT22;17451;49.908;7.980;2022-10-16T09:11:39;18.90;99.90
30702;DHT22;17451;49.908;7.980;2022-10-16T09:16:34;19.00;99.90
30702;DHT22;17451;49.908;7.980;2022-10-16T09:19:09;19.00;99.90
30702;DHT22;17451;49.908;7.980;2022-10-16T09:21:42;19.00;99.90
30702;DHT22;17451;49.908;7.980;2022-10-16T09:24:16;19.00;99.90
30702;DHT22;17451;49.908;7.980;2022-10-16T09:26:42;19.00;99.90
30702;DHT22;17451;49.908;7.980;2022-10-16T09:29:10;19.00;99.90
30702;DHT22;17451;49.908;7.980;2022-10-16T09:31:36;19.00;99.90
30702;DHT22;17451;49.908;7.980;2022-10-16T09:34:02;19.00;99.90
30702;DHT22;17451;49.908;7.980;2022-10-16T09:36:34;18.90;99.90
30702;DHT22;17451;49.908;7.980;2022-10-16T09:39:02;19.00;99.90
30702;DHT22;17451;49.908;7.980;2022-10-16T09:41:28;19.30;99.90
30702;DHT22;17451;49.908;7.980;2022-10-16T09:43:58;19.50;99.90
30702;DHT22;17451;49.908;7.980;2022-10-16T09:46:29;19.70;99.90
30702;DHT22;17451;49.908;7.980;2022-10-16T09:48:59;19.90;99.90
30702;DHT22;17451;49.908;7.980;2022-10-16T09:51:26;20.10;99.90
30702;DHT22;17451;49.908;7.980;2022-10-16T09:53:59;20.40;99.90
30702;DHT22;17451;49.908;7.980;2022-10-16T09:56:26;20.90;99.90
30702;DHT22;17451;49.908;7.980;2022-10-16T09:58:54;21.50;99.90
30702;DHT22;17451;49.908;7.980;2022-10-16T10:01:20;22.10;99.90
30702;DHT22;17451;49.908;7.980;2022-10-16T10:03:46;22.50;99.90
30702;DHT22;17451;49.908;7.980;2022-10-16T10:08:52;24.00;99.90
30702;DHT22;17451;49.908;7.980;2022-10-16T10:11:18;24.10;99.90
30702;DHT22;17451;49.908;7.980;2022-10-16T10:13:44;23.80;99.90
30702;DHT22;17451;49.908;7.980;2022-10-16T10:16:09;23.50;99.90
30702;DHT22;17451;49.908;7.980;2022-10-16T10:18:35;22.80;99.90
30702;DHT22;17451;49.908;7.980;2022-10-16T10:21:01;22.30;99.90
30702;DHT22;17451;49.908;7.980;2022-10-16T10:23:29;22.20;99.90
30702;DHT22;17451;49.908;7.980;2022-10-16T10:28:42;23.60;99.90
30702;DHT22;17451;49.908;7.980;2022-10-16T10:39:03;24.70;99.90
30702;DHT22;17451;49.908;7.980;2022-10-16T11:02:40;25.70;99.90
30702;DHT22;17451;49.908;7.980;2022-10-16T11:07:55;25.50;99.90
30702;DHT22;17451;49.908;7.980;2022-10-16T11:10:20;27.20;99.90
30702;DHT22;17451;49.908;7.980;2022-10-16T11:12:47;29.70;99.90
30702;DHT22;17451;49.908;7.980;2022-10-16T11:15:15;31.10;99.90
30702;DHT22;17451;49.908;7.980;2022-10-16T11:20:24;32.90;99.90
30702;DHT22;17451;49.908;7.980;2022-10-16T11:22:55;32.20;99.90
30702;DHT22;17451;49.908;7.980;2022-10-16T11:25:29;31.10;99.90
30702;DHT22;17451;49.908;7.980;2022-10-16T11:28:03;29.90;99.90
30702;DHT22;17451;49.908;7.980;2022-10-16T11:30:33;29.30;99.90
30702;DHT22;17451;49.908;7.980;2022-10-16T11:38:15;35.60;97.30
30702;DHT22;17451;49.908;7.980;2022-10-16T11:40:45;37.30;93.60
30702;DHT22;17451;49.908;7.980;2022-10-16T11:45:54;39.50;81.30
30702;DHT22;17451;49.908;7.980;2022-10-16T11:51:02;37.60;80.70
30702;DHT22;17451;49.908;7.980;2022-10-16T11:53:50;35.80;86.60
30702;DHT22;17451;49.908;7.980;2022-10-16T11:56:17;33.00;92.50
30702;DHT22;17451;49.908;7.980;2022-10-16T11:58:48;30.30;97.30
30702;DHT22;17451;49.908;7.980;2022-10-16T12:01:17;29.00;99.90
30702;DHT22;17451;49.908;7.980;2022-10-16T12:06:27;27.10;99.90
30702;DHT22;17451;49.908;7.980;2022-10-16T12:08:55;26.40;99.90
30702;DHT22;17451;49.908;7.980;2022-10-16T12:11:35;25.80;99.90
30702;DHT22;17451;49.908;7.980;2022-10-16T12:16:37;24.70;99.90
30702;DHT22;17451;49.908;7.980;2022-10-16T12:19:10;25.50;99.90
30702;DHT22;17451;49.908;7.980;2022-10-16T12:21:36;25.50;99.90
30702;DHT22;17451;49.908;7.980;2022-10-16T12:24:02;25.80;99.90
30702;DHT22;17451;49.908;7.980;2022-10-16T12:26:33;25.70;99.90
30702;DHT22;17451;49.908;7.980;2022-10-16T12:29:13;25.70;99.90
30702;DHT22;17451;49.908;7.980;2022-10-16T12:31:43;26.20;99.90
30702;DHT22;17451;49.908;7.980;2022-10-16T12:34:43;26.50;99.90
30702;DHT22;17451;49.908;7.980;2022-10-16T12:39:36;26.20;99.90
30702;DHT22;17451;49.908;7.980;2022-10-16T12:42:04;25.90;99.90
30702;DHT22;17451;49.908;7.980;2022-10-16T12:44:33;25.30;99.90
30702;DHT22;17451;49.908;7.980;2022-10-16T12:46:59;24.80;99.90
30702;DHT22;17451;49.908;7.980;2022-10-16T12:51:55;24.40;99.90
30702;DHT22;17451;49.908;7.980;2022-10-16T13:02:46;23.50;99.90
30702;DHT22;17451;49.908;7.980;2022-10-16T13:10:26;23.60;99.90
30702;DHT22;17451;49.908;7.980;2022-10-16T13:12:55;23.40;99.90
30702;DHT22;17451;49.908;7.980;2022-10-16T13:22:59;22.60;99.90
30702;DHT22;17451;49.908;7.980;2022-10-16T13:27:56;22.30;99.90
30702;DHT22;17451;49.908;7.980;2022-10-16T13:30:25;22.10;99.90
30702;DHT22;17451;49.908;7.980;2022-10-16T13:33:13;22.20;99.90
30702;DHT22;17451;49.908;7.980;2022-10-16T13:35:37;22.10;99.90
30702;DHT22;17451;49.908;7.980;2022-10-16T13:38:13;22.00;99.90
30702;DHT22;17451;49.908;7.980;2022-10-16T13:40:49;21.90;99.90
30702;DHT22;17451;49.908;7.980;2022-10-16T13:43:16;22.10;99.90
30702;DHT22;17451;49.908;7.980;2022-10-16T13:45:51;21.90;99.90
30702;DHT22;17451;49.908;7.980;2022-10-16T13:48:17;21.90;99.90
30702;DHT22;17451;49.908;7.980;2022-10-16T13:50:43;21.90;99.90
30702;DHT22;17451;49.908;7.980;2022-10-16T13:53:13;21.90;99.90
30702;DHT22;17451;49.908;7.980;2022-10-16T13:55:39;21.90;99.90
30702;DHT22;17451;49.908;7.980;2022-10-16T13:58:08;21.90;99.90
30702;DHT22;17451;49.908;7.980;2022-10-16T14:00:36;21.70;99.90
30702;DHT22;17451;49.908;7.980;2022-10-16T14:03:03;21.80;99.90
30702;DHT22;17451;49.908;7.980;2022-10-16T14:05:30;21.80;99.90
30702;DHT22;17451;49.908;7.980;2022-10-16T14:07:55;21.70;99.90
30702;DHT22;17451;49.908;7.980;2022-10-16T14:10:23;21.70;99.90
30702;DHT22;17451;49.908;7.980;2022-10-16T14:12:59;21.60;99.90
30702;DHT22;17451;49.908;7.980;2022-10-16T14:15:49;21.70;99.90
30702;DHT22;17451;49.908;7.980;2022-10-16T14:18:18;21.80;99.90
30702;DHT22;17451;49.908;7.980;2022-10-16T14:20:45;21.90;99.90
30702;DHT22;17451;49.908;7.980;2022-10-16T14:23:21;22.00;99.90
30702;DHT22;17451;49.908;7.980;2022-10-16T14:25:47;22.10;99.90
30702;DHT22;17451;49.908;7.980;2022-10-16T14:30:48;22.00;99.90
30702;DHT22;17451;49.908;7.980;2022-10-16T14:33:21;22.00;99.90
30702;DHT22;17451;49.908;7.980;2022-10-16T14:35:56;22.10;99.90
30702;DHT22;17451;49.908;7.980;2022-10-16T14:38:24;22.20;99.90
30702;DHT22;17451;49.908;7.980;2022-10-16T14:40:50;22.20;99.90
30702;DHT22;17451;49.908;7.980;2022-10-16T14:43:26;22.20;99.90
30702;DHT22;17451;49.908;7.980;2022-10-16T14:45:54;21.90;99.90
30702;DHT22;17451;49.908;7.980;2022-10-16T14:48:21;22.00;99.90
30702;DHT22;17451;49.908;7.980;2022-10-16T14:50:47;22.10;99.90
30702;DHT22;17451;49.908;7.980;2022-10-16T14:53:13;22.10;99.90
30702;DHT22;17451;49.908;7.980;2022-10-16T14:55:40;22.10;99.90
30702;DHT22;17451;49.908;7.980;2022-10-16T14:58:08;22.00;99.90
30702;DHT22;17451;49.908;7.980;2022-10-16T15:00:35;22.00;99.90
30702;DHT22;17451;49.908;7.980;2022-10-16T15:03:00;21.90;99.90
30702;DHT22;17451;49.908;7.980;2022-10-16T15:05:27;21.70;99.90
30702;DHT22;17451;49.908;7.980;2022-10-16T15:08:08;21.60;99.90
30702;DHT22;17451;49.908;7.980;2022-10-16T15:10:36;21.60;99.90
30702;DHT22;17451;49.908;7.980;2022-10-16T15:13:02;21.70;99.90
30702;DHT22;17451;49.908;7.980;2022-10-16T15:15:36;21.70;99.90
30702;DHT22;17451;49.908;7.980;2022-10-16T15:18:03;21.70;99.90
30702;DHT22;17451;49.908;7.980;2022-10-16T15:20:30;21.70;99.90
30702;DHT22;17451;49.908;7.980;2022-10-16T15:23:17;21.70;99.90
30702;DHT22;17451;49.908;7.980;2022-10-16T15:25:44;21.60;99.90
30702;DHT22;17451;49.908;7.980;2022-10-16T15:28:10;21.70;99.90
30702;DHT22;17451;49.908;7.980;2022-10-16T15:30:37;21.70;99.90
30702;DHT22;17451;49.908;7.980;2022-10-16T15:33:03;21.60;99.90
30702;DHT22;17451;49.908;7.980;2022-10-16T15:35:30;21.60;99.90
30702;DHT22;17451;49.908;7.980;2022-10-16T15:37:57;21.60;99.90
30702;DHT22;17451;49.908;7.980;2022-10-16T15:40:22;21.70;99.90
30702;DHT22;17451;49.908;7.980;2022-10-16T15:42:48;21.60;99.90
30702;DHT22;17451;49.908;7.980;2022-10-16T15:45:14;21.60;99.90
30702;DHT22;17451;49.908;7.980;2022-10-16T15:47:41;21.60;99.90
30702;DHT22;17451;49.908;7.980;2022-10-16T15:50:08;21.60;99.90
30702;DHT22;17451;49.908;7.980;2022-10-16T15:52:34;21.60;99.90
30702;DHT22;17451;49.908;7.980;2022-10-16T15:55:00;21.60;99.90
30702;DHT22;17451;49.908;7.980;2022-10-16T15:57:27;21.60;99.90
30702;DHT22;17451;49.908;7.980;2022-10-16T15:59:53;21.60;99.90
30702;DHT22;17451;49.908;7.980;2022-10-16T16:02:19;21.60;99.90
30702;DHT22;17451;49.908;7.980;2022-10-16T16:04:44;21.50;99.90
30702;DHT22;17451;49.908;7.980;2022-10-16T16:07:10;21.50;99.90
30702;DHT22;17451;49.908;7.980;2022-10-16T16:09:36;21.40;99.90
30702;DHT22;17451;49.908;7.980;2022-10-16T16:12:02;21.30;99.90
30702;DHT22;17451;49.908;7.980;2022-10-16T16:14:27;21.10;99.90
30702;DHT22;17451;49.908;7.980;2022-10-16T16:16:54;20.90;99.90
30702;DHT22;17451;49.908;7.980;2022-10-16T16:19:20;20.80;99.90
30702;DHT22;17451;49.908;7.980;2022-10-16T16:21:46;20.70;99.90
30702;DHT22;17451;49.908;7.980;2022-10-16T16:24:12;20.60;99.90
30702;DHT22;17451;49.908;7.980;2022-10-16T16:26:38;20.50;99.90
30702;DHT22;17451;49.908;7.980;2022-10-16T16:29:05;20.30;99.90
30702;DHT22;17451;49.908;7.980;2022-10-16T16:31:31;20.00;99.90
30702;DHT22;17451;49.908;7.980;2022-10-16T16:33:57;19.90;99.90
30702;DHT22;17451;49.908;7.980;2022-10-16T16:36:25;19.80;99.90
30702;DHT22;17451;49.908;7.980;2022-10-16T16:38:51;19.70;99.90
30702;DHT22;17451;49.908;7.980;2022-10-16T16:41:17;19.70;99.90
30702;DHT22;17451;49.908;7.980;2022-10-16T16:43:43;19.60;99.90
30702;DHT22;17451;49.908;7.980;2022-10-16T16:46:09;19.60;99.90
30702;DHT22;17451;49.908;7.980;2022-10-16T16:48:35;19.50;99.90
30702;DHT22;17451;49.908;7.980;2022-10-16T16:51:08;19.50;99.90
30702;DHT22;17451;49.908;7.980;2022-10-16T16:53:34;19.50;99.90
30702;DHT22;17451;49.908;7.980;2022-10-16T16:56:03;19.40;99.90
30702;DHT22;17451;49.908;7.980;2022-10-16T16:58:29;19.30;99.90
30702;DHT22;17451;49.908;7.980;2022-10-16T17:00:54;19.30;99.90
30702;DHT22;17451;49.908;7.980;2022-10-16T17:03:20;19.20;99.90
30702;DHT22;17451;49.908;7.980;2022-10-16T17:05:56;19.20;99.90
30702;DHT22;17451;49.908;7.980;2022-10-16T17:08:21;19.10;99.90
30702;DHT22;17451;49.908;7.980;2022-10-16T17:10:47;19.10;99.90
30702;DHT22;17451;49.908;7.980;2022-10-16T17:13:18;19.00;99.90
30702;DHT22;17451;49.908;7.980;2022-10-16T17:15:47;19.00;99.90
30702;DHT22;17451;49.908;7.980;2022-10-16T17:18:12;19.00;99.90
30702;DHT22;17451;49.908;7.980;2022-10-16T17:20:38;18.90;99.90
30702;DHT22;17451;49.908;7.980;2022-10-16T17:23:04;18.80;99.90
30702;DHT22;17451;49.908;7.980;2022-10-16T17:25:29;18.80;99.90
30702;DHT22;17451;49.908;7.980;2022-10-16T17:27:55;18.80;99.90
30702;DHT22;17451;49.908;7.980;2022-10-16T17:30:22;18.70;99.90
30702;DHT22;17451;49.908;7.980;2022-10-16T17:32:48;18.70;99.90
30702;DHT22;17451;49.908;7.980;2022-10-16T17:35:14;18.60;99.90
30702;DHT22;17451;49.908;7.980;2022-10-16T17:37:41;18.60;99.90
30702;DHT22;17451;49.908;7.980;2022-10-16T17:40:07;18.60;99.90
30702;DHT22;17451;49.908;7.980;2022-10-16T17:42:33;18.50;99.90
30702;DHT22;17451;49.908;7.980;2022-10-16T17:44:59;18.50;99.90
30702;DHT22;17451;49.908;7.980;2022-10-16T17:47:24;18.50;99.90
30702;DHT22;17451;49.908;7.980;2022-10-16T17:49:50;18.50;99.90
30702;DHT22;17451;49.908;7.980;2022-10-16T17:52:15;18.50;99.90
30702;DHT22;17451;49.908;7.980;2022-10-16T17:54:41;18.40;99.90
30702;DHT22;17451;49.908;7.980;2022-10-16T17:57:08;18.40;99.90
30702;DHT22;17451;49.908;7.980;2022-10-16T17:59:34;18.30;99.90
30702;DHT22;17451;49.908;7.980;2022-10-16T18:01:59;18.30;99.90
30702;DHT22;17451;49.908;7.980;2022-10-16T18:04:25;18.20;99.90
30702;DHT22;17451;49.908;7.980;2022-10-16T18:06:51;18.20;99.90
30702;DHT22;17451;49.908;7.980;2022-10-16T18:09:17;18.20;99.90
30702;DHT22;17451;49.908;7.980;2022-10-16T18:11:43;18.10;99.90
30702;DHT22;17451;49.908;7.980;2022-10-16T18:14:13;18.10;99.90
30702;DHT22;17451;49.908;7.980;2022-10-16T18:16:40;18.10;99.90
30702;DHT22;17451;49.908;7.980;2022-10-16T18:19:05;18.10;99.90
30702;DHT22;17451;49.908;7.980;2022-10-16T18:21:31;18.00;99.90
30702;DHT22;17451;49.908;7.980;2022-10-16T18:23:58;18.00;99.90
30702;DHT22;17451;49.908;7.980;2022-10-16T18:26:24;18.00;99.90
30702;DHT22;17451;49.908;7.980;2022-10-16T18:28:53;18.00;99.90
30702;DHT22;17451;49.908;7.980;2022-10-16T18:31:20;18.00;99.90
30702;DHT22;17451;49.908;7.980;2022-10-16T18:33:45;18.10;99.90
30702;DHT22;17451;49.908;7.980;2022-10-16T18:36:22;18.10;99.90
30702;DHT22;17451;49.908;7.980;2022-10-16T18:38:48;18.00;99.90
30702;DHT22;17451;49.908;7.980;2022-10-16T18:41:14;18.00;99.90
30702;DHT22;17451;49.908;7.980;2022-10-16T18:43:39;17.90;99.90
30702;DHT22;17451;49.908;7.980;2022-10-16T18:46:15;17.70;99.90
30702;DHT22;17451;49.908;7.980;2022-10-16T18:48:42;17.70;99.90
30702;DHT22;17451;49.908;7.980;2022-10-16T18:51:15;17.60;99.90
30702;DHT22;17451;49.908;7.980;2022-10-16T18:53:42;17.50;99.90
30702;DHT22;17451;49.908;7.980;2022-10-16T18:56:09;17.60;99.90
30702;DHT22;17451;49.908;7.980;2022-10-16T18:58:35;17.60;99.90
30702;DHT22;17451;49.908;7.980;2022-10-16T19:01:05;17.70;99.90
30702;DHT22;17451;49.908;7.980;2022-10-16T19:03:31;17.80;99.90
30702;DHT22;17451;49.908;7.980;2022-10-16T19:06:04;17.90;99.90
30702;DHT22;17451;49.908;7.980;2022-10-16T19:08:31;18.00;99.90
30702;DHT22;17451;49.908;7.980;2022-10-16T19:11:02;18.20;99.90
30702;DHT22;17451;49.908;7.980;2022-10-16T19:13:28;18.20;99.90
30702;DHT22;17451;49.908;7.980;2022-10-16T19:15:54;18.30;99.90
30702;DHT22;17451;49.908;7.980;2022-10-16T19:18:20;18.30;99.90
30702;DHT22;17451;49.908;7.980;2022-10-16T19:20:46;18.40;99.90
30702;DHT22;17451;49.908;7.980;2022-10-16T19:23:12;18.40;99.90
30702;DHT22;17451;49.908;7.980;2022-10-16T19:25:38;18.40;99.90
30702;DHT22;17451;49.908;7.980;2022-10-16T19:28:04;18.40;99.90
30702;DHT22;17451;49.908;7.980;2022-10-16T19:30:35;18.40;99.90
30702;DHT22;17451;49.908;7.980;2022-10-16T19:33:02;18.30;99.90
30702;DHT22;17451;49.908;7.980;2022-10-16T19:35:27;18.30;99.90
30702;DHT22;17451;49.908;7.980;2022-10-16T19:37:53;18.30;99.90
30702;DHT22;17451;49.908;7.980;2022-10-16T19:40:19;18.30;99.90
30702;DHT22;17451;49.908;7.980;2022-10-16T19:42:46;18.30;99.90
30702;DHT22;17451;49.908;7.980;2022-10-16T19:45:11;18.20;99.90
30702;DHT22;17451;49.908;7.980;2022-10-16T19:47:37;18.20;99.90
30702;DHT22;17451;49.908;7.980;2022-10-16T19:50:03;18.10;99.90
30702;DHT22;17451;49.908;7.980;2022-10-16T19:52:31;18.10;99.90
30702;DHT22;17451;49.908;7.980;2022-10-16T19:54:56;18.10;99.90
30702;DHT22;17451;49.908;7.980;2022-10-16T19:57:22;18.00;99.90
30702;DHT22;17451;49.908;7.980;2022-10-16T19:59:52;18.10;99.90
30702;DHT22;17451;49.908;7.980;2022-10-16T20:02:18;18.10;99.90